createdAt,value
2022-08-19T00:02:13.510Z,23.11
2022-08-19T00:04:41.159Z,23.11
2022-08-19T00:07:08.717Z,23.10
2022-08-19T00:09:36.353Z,23.09
2022-08-19T00:12:04.625Z,23.07
2022-08-19T00:14:32.369Z,23.06
2022-08-19T00:17:00.335Z,23.06
2022-08-19T00:19:27.378Z,23.05
2022-08-19T00:21:55.391Z,23.04
2022-08-19T00:24:22.983Z,23.02
2022-08-19T00:26:51.266Z,23.03
2022-08-19T00:29:21.408Z,23.06
2022-08-19T00:31:50.734Z,23.04
2022-08-19T00:34:18.081Z,23.04
2022-08-19T00:36:46.344Z,22.96
2022-08-19T00:39:15.010Z,22.94
2022-08-19T00:41:44.182Z,22.94
2022-08-19T00:44:26.827Z,22.95
2022-08-19T00:46:58.385Z,22.96
2022-08-19T00:49:31.076Z,22.96
2022-08-19T00:52:33.523Z,22.96
2022-08-19T00:55:01.782Z,22.95
2022-08-19T00:57:39.902Z,22.98
2022-08-19T01:00:13.220Z,22.95
2022-08-19T01:02:42.342Z,22.92
2022-08-19T01:05:19.609Z,22.93
2022-08-19T01:07:49.202Z,22.90
2022-08-19T01:10:21.889Z,22.87
2022-08-19T01:12:50.774Z,22.86
2022-08-19T01:15:24.388Z,22.86
2022-08-19T01:17:53.110Z,22.85
2022-08-19T01:20:23.886Z,22.84
2022-08-19T01:22:59.400Z,22.85
2022-08-19T01:25:32.800Z,22.85
2022-08-19T01:28:06.400Z,22.84
2022-08-19T01:30:38.623Z,22.84
2022-08-19T01:33:06.612Z,22.85
2022-08-19T01:35:36.319Z,22.86
2022-08-19T01:38:09.366Z,22.87
2022-08-19T01:40:40.046Z,22.87
2022-08-19T01:43:07.255Z,22.91
2022-08-19T01:45:36.220Z,22.94
2022-08-19T01:48:05.048Z,22.94
2022-08-19T01:50:34.530Z,22.90
2022-08-19T01:53:06.664Z,22.89
2022-08-19T01:55:43.032Z,22.86
2022-08-19T01:58:21.702Z,22.90
2022-08-19T02:00:49.377Z,22.90
2022-08-19T02:03:17.202Z,22.86
2022-08-19T02:05:45.571Z,22.85
2022-08-19T02:08:13.728Z,22.87
2022-08-19T02:10:44.411Z,22.89
2022-08-19T02:13:14.336Z,22.91
2022-08-19T02:15:41.888Z,22.94
2022-08-19T02:18:09.478Z,22.92
2022-08-19T02:20:38.812Z,22.89
2022-08-19T02:23:13.805Z,22.86
2022-08-19T02:25:48.928Z,22.86
2022-08-19T02:28:18.825Z,22.87
2022-08-19T02:30:48.371Z,22.89
2022-08-19T02:33:16.273Z,22.91
2022-08-19T02:35:45.763Z,22.90
2022-08-19T02:38:38.109Z,22.92
2022-08-19T02:41:22.797Z,22.87
2022-08-19T02:44:20.401Z,22.83
2022-08-19T02:46:44.488Z,22.73
2022-08-19T02:49:11.710Z,22.66
2022-08-19T02:51:44.000Z,22.27
2022-08-19T02:54:13.576Z,22.14
2022-08-19T02:56:46.350Z,22.04
2022-08-19T02:59:13.477Z,22.09
2022-08-19T03:01:43.072Z,22.14
2022-08-19T03:04:16.549Z,22.13
2022-08-19T03:06:47.236Z,22.09
2022-08-19T03:09:15.603Z,22.13
2022-08-19T03:11:43.137Z,22.19
2022-08-19T03:14:11.266Z,22.20
2022-08-19T03:16:49.566Z,22.17
2022-08-19T03:19:19.883Z,22.19
2022-08-19T03:21:47.517Z,22.19
2022-08-19T03:24:16.258Z,22.16
2022-08-19T03:26:48.156Z,22.17
2022-08-19T03:29:16.022Z,22.21
2022-08-19T03:32:02.257Z,22.22
2022-08-19T03:34:35.189Z,22.25
2022-08-19T03:37:10.724Z,22.24
2022-08-19T03:39:39.914Z,22.23
2022-08-19T03:42:38.914Z,22.24
2022-08-19T03:44:54.104Z,22.22
2022-08-19T03:47:21.073Z,22.20
2022-08-19T03:49:48.109Z,22.17
2022-08-19T03:52:15.234Z,22.19
2022-08-19T03:54:46.689Z,22.20
2022-08-19T03:57:13.887Z,22.24
2022-08-19T03:59:40.969Z,22.23
2022-08-19T04:02:13.057Z,22.19
2022-08-19T04:04:44.251Z,22.19
2022-08-19T04:07:16.794Z,22.20
2022-08-19T04:09:44.707Z,22.24
2022-08-19T04:12:12.600Z,22.21
2022-08-19T04:14:40.585Z,22.19
2022-08-19T04:17:07.660Z,22.21
2022-08-19T04:19:38.045Z,22.24
2022-08-19T04:22:07.807Z,22.19
2022-08-19T04:24:36.021Z,22.20
2022-08-19T04:27:03.750Z,22.20
2022-08-19T04:29:31.770Z,22.17
2022-08-19T04:32:00.123Z,22.20
2022-08-19T04:34:35.837Z,22.17
2022-08-19T04:37:12.806Z,22.19
2022-08-19T04:39:58.846Z,22.22
2022-08-19T04:42:41.687Z,22.19
2022-08-19T04:45:15.043Z,22.19
2022-08-19T04:47:48.107Z,22.19
2022-08-19T04:50:27.701Z,22.18
2022-08-19T04:52:57.086Z,22.20
2022-08-19T04:55:26.850Z,22.17
2022-08-19T04:57:55.476Z,22.16
2022-08-19T05:00:23.217Z,22.17
2022-08-19T05:02:50.653Z,22.19
2022-08-19T05:05:18.403Z,22.21
2022-08-19T05:07:45.383Z,22.24
2022-08-19T05:10:16.595Z,22.26
2022-08-19T05:12:43.786Z,22.28
2022-08-19T05:15:11.358Z,22.24
2022-08-19T05:17:39.305Z,22.22
2022-08-19T05:20:27.600Z,22.21
2022-08-19T05:22:55.003Z,22.19
2022-08-19T05:25:23.272Z,22.18
2022-08-19T05:27:50.784Z,22.15
2022-08-19T05:30:18.911Z,22.13
2022-08-19T05:33:01.129Z,22.12
2022-08-19T05:35:29.203Z,22.11
2022-08-19T05:38:02.220Z,22.09
2022-08-19T05:40:30.348Z,22.09
2022-08-19T05:42:57.297Z,22.10
2022-08-19T05:45:24.389Z,22.09
2022-08-19T05:47:51.337Z,22.08
2022-08-19T05:50:19.098Z,22.06
2022-08-19T05:52:50.055Z,22.04
2022-08-19T05:55:17.798Z,22.03
2022-08-19T05:57:44.770Z,22.02
2022-08-19T06:00:12.885Z,22.03
2022-08-19T06:02:41.267Z,22.04
2022-08-19T06:05:10.132Z,22.04
2022-08-19T06:07:38.310Z,22.01
2022-08-19T06:10:09.371Z,22.00
2022-08-19T06:12:38.027Z,22.01
2022-08-19T06:15:12.668Z,22.03
2022-08-19T06:17:42.731Z,22.04
2022-08-19T06:20:15.048Z,22.05
2022-08-19T06:22:47.432Z,22.04
2022-08-19T06:25:15.988Z,22.04
2022-08-19T06:30:30.659Z,22.04
2022-08-19T06:32:57.910Z,22.05
2022-08-19T06:35:24.999Z,22.05
2022-08-19T06:37:53.569Z,22.07
2022-08-19T06:40:21.791Z,22.08
2022-08-19T06:42:54.124Z,22.08
2022-08-19T06:45:34.461Z,22.10
2022-08-19T06:48:03.944Z,22.10
2022-08-19T06:50:30.942Z,22.09
2022-08-19T06:52:58.663Z,22.04
2022-08-19T06:55:33.307Z,22.00
2022-08-19T06:58:05.139Z,22.05
2022-08-19T07:00:33.309Z,22.08
2022-08-19T07:03:05.970Z,22.11
2022-08-19T07:05:41.081Z,22.11
2022-08-19T07:08:15.036Z,22.14
2022-08-19T07:10:47.128Z,22.17
2022-08-19T07:13:14.068Z,22.14
2022-08-19T07:15:41.726Z,22.13
2022-08-19T07:18:11.873Z,22.13
2022-08-19T07:20:41.845Z,22.15
2022-08-19T07:23:10.044Z,22.17
2022-08-19T07:25:44.539Z,22.21
2022-08-19T07:28:20.215Z,22.25
2022-08-19T07:30:53.443Z,22.29
2022-08-19T07:33:20.873Z,22.33
2022-08-19T07:35:47.951Z,22.30
2022-08-19T07:38:15.817Z,22.32
2022-08-19T07:40:44.117Z,22.33
2022-08-19T07:43:14.100Z,22.36
2022-08-19T07:45:44.324Z,22.42
2022-08-19T07:48:12.148Z,22.48
2022-08-19T07:50:39.557Z,22.51
2022-08-19T07:53:06.548Z,22.56
2022-08-19T07:55:41.470Z,22.57
2022-08-19T07:58:13.557Z,22.60
2022-08-19T08:00:42.701Z,22.62
2022-08-19T08:03:10.836Z,22.64
2022-08-19T08:05:56.718Z,22.64
2022-08-19T08:08:44.306Z,22.62
2022-08-19T08:11:20.692Z,22.64
2022-08-19T08:14:01.234Z,22.66
2022-08-19T08:16:47.378Z,22.66
2022-08-19T08:19:25.407Z,22.68
2022-08-19T08:21:59.144Z,22.66
2022-08-19T08:24:29.092Z,22.64
2022-08-19T08:26:57.273Z,22.65
2022-08-19T08:29:26.074Z,22.63
2022-08-19T08:31:59.662Z,22.64
2022-08-19T08:34:27.340Z,22.64
2022-08-19T08:36:54.297Z,22.65
2022-08-19T08:39:22.629Z,22.70
2022-08-19T08:42:21.151Z,22.75
2022-08-19T08:44:59.858Z,22.72
2022-08-19T08:47:38.365Z,22.73
2022-08-19T08:50:18.414Z,22.71
2022-08-19T08:52:56.127Z,22.74
2022-08-19T08:55:27.878Z,22.75
2022-08-19T08:58:16.872Z,22.77
2022-08-19T09:00:49.421Z,22.79
2022-08-19T09:03:24.150Z,22.84
2022-08-19T09:06:04.411Z,22.94
2022-08-19T09:09:12.196Z,23.03
2022-08-19T09:12:17.065Z,23.09
2022-08-19T09:15:06.691Z,23.07
2022-08-19T09:17:36.358Z,23.14
2022-08-19T09:20:23.769Z,23.12
2022-08-19T09:22:53.287Z,23.12
2022-08-19T09:25:26.737Z,23.16
2022-08-19T09:28:02.625Z,23.21
2022-08-19T09:30:53.092Z,23.28
2022-08-19T09:33:20.822Z,23.29
2022-08-19T09:35:53.071Z,23.26
2022-08-19T09:38:23.062Z,23.25
2022-08-19T09:40:50.862Z,23.25
2022-08-19T09:43:33.338Z,23.20
2022-08-19T09:46:02.435Z,23.22
2022-08-19T09:48:29.811Z,23.26
2022-08-19T09:51:11.799Z,23.29
2022-08-19T09:53:40.141Z,23.32
2022-08-19T09:56:08.433Z,23.31
2022-08-19T09:58:37.524Z,23.26
2022-08-19T10:01:06.447Z,23.25
2022-08-19T10:03:35.938Z,23.22
2022-08-19T10:06:15.214Z,23.21
2022-08-19T10:08:50.087Z,23.23
2022-08-19T10:11:28.829Z,23.26
2022-08-19T10:14:06.954Z,23.31
2022-08-19T10:16:39.527Z,23.33
2022-08-19T10:19:08.151Z,23.37
2022-08-19T10:21:36.715Z,23.42
2022-08-19T10:24:07.044Z,23.45
2022-08-19T10:26:42.686Z,23.48
2022-08-19T10:29:10.893Z,23.58
2022-08-19T10:32:02.512Z,23.62
2022-08-19T10:34:28.345Z,23.67
2022-08-19T10:37:01.200Z,23.75
2022-08-19T10:39:43.027Z,23.73
2022-08-19T10:42:11.648Z,23.73
2022-08-19T10:44:38.832Z,23.74
2022-08-19T10:47:17.306Z,23.74
2022-08-19T10:50:09.064Z,23.64
2022-08-19T10:52:50.180Z,23.65
2022-08-19T10:55:41.099Z,23.67
2022-08-19T10:58:18.662Z,23.69
2022-08-19T11:00:54.910Z,23.63
2022-08-19T11:03:22.845Z,23.63
2022-08-19T11:06:07.589Z,23.61
2022-08-19T11:08:38.397Z,23.60
2022-08-19T11:11:07.034Z,23.61
2022-08-19T11:13:40.355Z,23.65
2022-08-19T11:16:14.900Z,23.73
2022-08-19T11:18:47.128Z,23.74
2022-08-19T11:21:25.088Z,23.77
2022-08-19T11:23:57.900Z,23.81
2022-08-19T11:26:25.958Z,23.82
2022-08-19T11:28:55.394Z,23.89
2022-08-19T11:31:34.688Z,23.94
2022-08-19T11:34:05.525Z,24.00
2022-08-19T11:36:33.830Z,24.06
2022-08-19T11:39:01.786Z,24.12
2022-08-19T11:41:28.991Z,24.20
2022-08-19T11:43:56.318Z,24.24
2022-08-19T11:46:26.590Z,24.24
2022-08-19T11:48:53.602Z,24.28
2022-08-19T11:51:25.523Z,24.32
2022-08-19T11:53:55.322Z,24.38
2022-08-19T11:56:24.978Z,24.38
2022-08-19T11:58:53.740Z,24.38
2022-08-19T12:01:24.253Z,24.38
2022-08-19T12:03:54.070Z,24.39
2022-08-19T12:06:29.736Z,24.38
2022-08-19T12:09:00.894Z,24.37
2022-08-19T12:11:28.683Z,24.38
2022-08-19T12:13:58.569Z,24.32
2022-08-19T12:16:29.027Z,24.34
2022-08-19T12:18:58.655Z,24.32
2022-08-19T12:21:31.952Z,24.34
2022-08-19T12:24:01.196Z,24.27
2022-08-19T12:26:29.991Z,24.33
2022-08-19T12:28:56.944Z,24.34
2022-08-19T12:31:23.957Z,24.35
2022-08-19T12:33:51.256Z,24.37
2022-08-19T12:36:18.834Z,24.43
2022-08-19T12:38:46.495Z,24.52
2022-08-19T12:41:18.671Z,24.63
2022-08-19T12:43:46.492Z,24.77
2022-08-19T12:46:13.671Z,24.91
2022-08-19T12:48:45.639Z,25.03
2022-08-19T12:51:19.098Z,25.15
2022-08-19T12:53:48.069Z,25.19
2022-08-19T12:56:15.737Z,25.18
2022-08-19T12:58:48.846Z,25.16
2022-08-19T13:01:20.430Z,25.16
2022-08-19T13:03:53.577Z,25.11
2022-08-19T13:06:20.847Z,25.16
2022-08-19T13:08:48.277Z,25.22
2022-08-19T13:11:18.726Z,25.21
2022-08-19T13:13:51.404Z,25.21
2022-08-19T13:16:21.227Z,25.18
2022-08-19T13:18:51.446Z,25.21
2022-08-19T13:21:21.539Z,25.20
2022-08-19T13:23:51.438Z,25.26
2022-08-19T13:26:19.174Z,25.27
2022-08-19T13:29:05.455Z,25.32
2022-08-19T13:31:54.060Z,25.33
2022-08-19T13:34:32.210Z,25.32
2022-08-19T13:37:01.266Z,25.35
2022-08-19T13:39:28.461Z,25.39
2022-08-19T13:41:55.751Z,25.42
2022-08-19T13:44:22.768Z,25.51
2022-08-19T13:46:53.891Z,25.61
2022-08-19T13:49:21.635Z,25.77
2022-08-19T13:51:48.948Z,25.88
2022-08-19T13:54:17.811Z,25.97
2022-08-19T13:56:46.983Z,26.01
2022-08-19T13:59:14.868Z,26.04
2022-08-19T14:01:42.543Z,26.16
2022-08-19T14:04:09.983Z,26.21
2022-08-19T14:06:37.251Z,26.30
2022-08-19T14:09:05.725Z,26.41
2022-08-19T14:11:32.760Z,26.50
2022-08-19T14:13:59.952Z,26.64
2022-08-19T14:16:28.204Z,26.67
2022-08-19T14:18:55.886Z,26.70
2022-08-19T14:21:26.124Z,26.77
2022-08-19T14:23:54.301Z,26.88
2022-08-19T14:26:23.197Z,26.94
2022-08-19T14:28:53.184Z,26.93
2022-08-19T14:31:21.015Z,27.01
2022-08-19T14:33:49.066Z,27.08
2022-08-19T14:36:16.409Z,27.17
2022-08-19T14:38:44.131Z,27.23
2022-08-19T14:41:20.459Z,27.22
2022-08-19T14:43:50.828Z,27.24
2022-08-19T14:46:22.084Z,27.21
2022-08-19T14:48:51.906Z,27.31
2022-08-19T14:51:22.502Z,27.30
2022-08-19T14:53:51.222Z,27.32
2022-08-19T14:56:25.863Z,27.36
2022-08-19T14:58:53.592Z,27.37
2022-08-19T15:01:23.579Z,27.39
2022-08-19T15:03:53.824Z,27.42
2022-08-19T15:06:23.237Z,27.40
2022-08-19T15:08:52.634Z,27.36
2022-08-19T15:11:25.051Z,27.33
2022-08-19T15:13:52.445Z,27.29
2022-08-19T15:16:22.212Z,27.26
2022-08-19T15:18:54.012Z,27.24
2022-08-19T15:21:26.744Z,27.21
2022-08-19T15:23:57.822Z,27.15
2022-08-19T15:26:26.684Z,27.12
2022-08-19T15:28:53.638Z,27.10
2022-08-19T15:31:27.994Z,27.08
2022-08-19T15:33:58.537Z,27.08
2022-08-19T15:36:27.414Z,27.10
2022-08-19T15:38:58.325Z,27.08
2022-08-19T15:41:30.574Z,27.08
2022-08-19T15:44:05.797Z,27.12
2022-08-19T15:46:35.150Z,27.13
2022-08-19T15:49:03.321Z,27.13
2022-08-19T15:51:35.497Z,27.13
2022-08-19T15:54:06.606Z,27.13
2022-08-19T15:57:06.657Z,27.15
2022-08-19T15:59:54.608Z,27.18
2022-08-19T16:02:45.417Z,27.20
2022-08-19T16:05:37.145Z,27.17
2022-08-19T16:08:04.571Z,27.18
2022-08-19T16:10:32.009Z,27.20
2022-08-19T16:12:59.263Z,27.20
2022-08-19T16:15:30.697Z,27.22
2022-08-19T16:17:58.743Z,27.23
2022-08-19T16:20:27.748Z,27.24
2022-08-19T16:22:58.478Z,27.24
2022-08-19T16:25:29.231Z,27.24
2022-08-19T16:28:07.741Z,27.24
2022-08-19T16:30:39.447Z,27.20
2022-08-19T16:33:08.419Z,27.17
2022-08-19T16:35:35.997Z,27.17
2022-08-19T16:38:03.029Z,27.15
2022-08-19T16:40:30.083Z,27.13
2022-08-19T16:42:57.123Z,27.13
2022-08-19T16:45:24.215Z,27.11
2022-08-19T16:47:51.304Z,27.09
2022-08-19T16:50:29.275Z,27.10
2022-08-19T16:53:09.168Z,27.10
2022-08-19T16:55:37.668Z,27.12
2022-08-19T16:58:05.085Z,27.10
2022-08-19T17:00:32.117Z,27.10
2022-08-19T17:03:14.707Z,27.09
2022-08-19T17:05:44.537Z,27.04
2022-08-19T17:08:11.677Z,27.03
2022-08-19T17:10:39.088Z,27.02
2022-08-19T17:13:07.084Z,27.00
2022-08-19T17:15:35.155Z,26.98
2022-08-19T17:18:05.859Z,26.95
2022-08-19T17:20:35.456Z,26.92
2022-08-19T17:23:03.128Z,26.89
2022-08-19T17:25:32.067Z,26.87
2022-08-19T17:28:12.276Z,26.84
2022-08-19T17:30:39.987Z,26.80
2022-08-19T17:33:07.976Z,26.76
2022-08-19T17:35:35.827Z,26.74
2022-08-19T17:38:08.235Z,26.71
2022-08-19T17:40:38.606Z,26.65
2022-08-19T17:43:08.951Z,26.62
2022-08-19T17:45:38.615Z,26.59
2022-08-19T17:48:06.556Z,26.56
2022-08-19T17:50:35.240Z,26.53
2022-08-19T17:53:03.681Z,26.50
2022-08-19T17:55:32.263Z,26.46
2022-08-19T17:57:59.237Z,26.45
2022-08-19T18:00:26.194Z,26.43
2022-08-19T18:03:01.230Z,26.40
2022-08-19T18:05:34.542Z,26.37
2022-08-19T18:08:01.914Z,26.33
2022-08-19T18:10:35.127Z,26.31
2022-08-19T18:13:02.452Z,26.28
2022-08-19T18:15:44.858Z,26.24
2022-08-19T18:18:15.154Z,26.21
2022-08-19T18:20:44.191Z,26.20
2022-08-19T18:23:44.099Z,26.16
2022-08-19T18:25:58.752Z,26.13
2022-08-19T18:28:26.039Z,26.09
2022-08-19T18:30:53.736Z,26.06
2022-08-19T18:33:21.163Z,26.03
2022-08-19T18:35:52.071Z,25.98
2022-08-19T18:38:40.960Z,25.96
2022-08-19T18:41:27.871Z,25.91
2022-08-19T18:44:13.514Z,25.87
2022-08-19T18:46:59.261Z,25.83
2022-08-19T18:49:29.928Z,25.80
2022-08-19T18:51:57.775Z,25.78
2022-08-19T18:54:26.743Z,25.76
2022-08-19T18:56:55.714Z,25.75
2022-08-19T18:59:28.030Z,25.74
2022-08-19T19:01:58.650Z,25.71
2022-08-19T19:04:31.305Z,25.71
2022-08-19T19:06:58.524Z,25.69
2022-08-19T19:09:26.707Z,25.69
2022-08-19T19:12:00.919Z,25.69
2022-08-19T19:14:48.580Z,25.66
2022-08-19T19:17:17.207Z,25.65
2022-08-19T19:19:45.775Z,25.62
2022-08-19T19:22:18.199Z,25.62
2022-08-19T19:24:46.277Z,25.59
2022-08-19T19:27:16.292Z,25.57
2022-08-19T19:29:43.337Z,25.53
2022-08-19T19:32:24.155Z,25.50
2022-08-19T19:34:51.139Z,25.45
2022-08-19T19:37:19.182Z,25.42
2022-08-19T19:39:48.041Z,25.38
2022-08-19T19:42:23.826Z,25.35
2022-08-19T19:44:54.869Z,25.31
2022-08-19T19:47:30.321Z,25.28
2022-08-19T19:50:14.315Z,25.27
2022-08-19T19:52:45.697Z,25.22
2022-08-19T19:55:18.249Z,25.20
2022-08-19T19:57:49.573Z,25.18
2022-08-19T20:00:18.967Z,25.16
2022-08-19T20:02:50.145Z,25.14
2022-08-19T20:05:23.221Z,25.11
2022-08-19T20:08:12.113Z,25.07
2022-08-19T20:10:42.515Z,25.05
2022-08-19T20:13:11.701Z,25.02
2022-08-19T20:15:42.616Z,25.00
2022-08-19T20:18:12.160Z,24.97
2022-08-19T20:20:39.513Z,24.94
2022-08-19T20:23:07.267Z,24.93
2022-08-19T20:25:34.576Z,24.89
2022-08-19T20:28:01.669Z,24.86
2022-08-19T20:30:29.756Z,24.84
2022-08-19T20:33:01.008Z,24.82
2022-08-19T20:35:28.596Z,24.80
2022-08-19T20:37:58.342Z,24.78
2022-08-19T20:40:27.773Z,24.75
2022-08-19T20:42:56.678Z,24.72
2022-08-19T20:45:33.039Z,24.70
2022-08-19T20:48:03.221Z,24.69
2022-08-19T20:50:33.006Z,24.70
2022-08-19T20:53:01.913Z,24.70
2022-08-19T20:55:30.687Z,24.69
2022-08-19T20:57:59.277Z,24.66
2022-08-19T21:00:26.916Z,24.65
2022-08-19T21:02:54.642Z,24.64
2022-08-19T21:05:22.233Z,24.61
2022-08-19T21:07:50.182Z,24.59
2022-08-19T21:10:18.053Z,24.58
2022-08-19T21:12:45.352Z,24.56
2022-08-19T21:15:13.470Z,24.54
2022-08-19T21:17:40.834Z,24.51
2022-08-19T21:20:10.205Z,24.49
2022-08-19T21:22:37.992Z,24.48
2022-08-19T21:25:06.977Z,24.46
2022-08-19T21:27:34.075Z,24.43
2022-08-19T21:30:01.544Z,24.42
2022-08-19T21:32:29.020Z,24.42
2022-08-19T21:34:56.343Z,24.41
2022-08-19T21:37:24.992Z,24.41
2022-08-19T21:39:56.830Z,24.39
2022-08-19T21:42:25.211Z,24.38
2022-08-19T21:44:52.258Z,24.35
2022-08-19T21:47:20.081Z,24.34
2022-08-19T21:49:47.082Z,24.32
2022-08-19T21:52:14.549Z,24.31
2022-08-19T21:54:42.144Z,24.30
2022-08-19T21:57:10.401Z,24.29
2022-08-19T21:59:43.820Z,24.30
2022-08-19T22:02:21.939Z,24.27
2022-08-19T22:04:53.227Z,24.27
2022-08-19T22:07:22.429Z,24.25
2022-08-19T22:09:51.658Z,24.25
2022-08-19T22:12:28.090Z,24.26
2022-08-19T22:14:55.954Z,24.24
2022-08-19T22:17:24.301Z,24.23
2022-08-19T22:19:52.478Z,24.24
2022-08-19T22:22:30.409Z,24.25
2022-08-19T22:25:08.818Z,24.26
2022-08-19T22:27:36.463Z,24.23
2022-08-19T22:30:16.593Z,24.22
2022-08-19T22:32:56.240Z,24.20
2022-08-19T22:35:28.431Z,24.18
2022-08-19T22:37:55.716Z,24.18
2022-08-19T22:40:24.493Z,24.17
2022-08-19T22:43:05.056Z,24.17
2022-08-19T22:45:33.502Z,24.16
2022-08-19T22:48:00.760Z,24.16
2022-08-19T22:50:28.442Z,24.16
2022-08-19T22:53:03.538Z,24.15
2022-08-19T22:55:31.377Z,24.12
2022-08-19T22:58:01.115Z,24.12
2022-08-19T23:00:32.343Z,24.08
2022-08-19T23:03:00.181Z,24.06
2022-08-19T23:05:30.473Z,24.03
2022-08-19T23:07:59.143Z,24.01
2022-08-19T23:10:29.024Z,23.97
2022-08-19T23:12:59.195Z,23.97
2022-08-19T23:15:31.908Z,23.97
2022-08-19T23:18:03.157Z,23.96
2022-08-19T23:20:37.358Z,23.92
2022-08-19T23:23:08.282Z,23.89
2022-08-19T23:25:37.354Z,23.85
2022-08-19T23:28:24.858Z,23.81
2022-08-19T23:30:53.853Z,23.79
2022-08-19T23:33:26.423Z,23.77
2022-08-19T23:36:16.947Z,23.71
2022-08-19T23:38:47.975Z,23.69
2022-08-19T23:41:17.528Z,23.66
2022-08-19T23:43:45.323Z,23.62
2022-08-19T23:46:28.051Z,23.61
2022-08-19T23:48:57.083Z,23.60
2022-08-19T23:51:26.465Z,23.56
2022-08-19T23:53:53.576Z,23.52
2022-08-19T23:56:21.527Z,23.49
2022-08-19T23:58:49.173Z,23.47
